ASL80A LYBE-LOWW
Flight info
| Callsign | ASL80A |
|---|---|
| Flight time | 1h 13m |
| Altitude | 20000 |
| Route | TISAK4Z/12L TISAK M173 PARAK DCT BALUX DCT TORNO DCT NATEX NATEX2W |
| Aircraft | AT76/M-SDFGIRY/S |
Departure
| Time | 2026-05-06 16:22 |
|---|---|
| Airport | Belgrade Nikola Tesla Airport (LYBE) |
Arrival
| Time | 2026-05-06 17:35 |
|---|---|
| Airport | Vienna International Airport (LOWW) |
| Time | Latitude | Longitude | Altitude | Speed | Heading |
|---|---|---|---|---|---|
| 2026-05-06 15:46 | 44.81521 | 20.29136 | 330 ft | 0 kts | 122° |
| 2026-05-06 16:17 | 44.81524 | 20.29128 | 303 ft | 4 kts | 122° |
| 2026-05-06 16:17 | 44.81550 | 20.29071 | 304 ft | 3 kts | 102° |
| 2026-05-06 16:18 | 44.81549 | 20.29057 | 303 ft | 0 kts | 30° |
| 2026-05-06 16:18 | 44.81570 | 20.29068 | 303 ft | 6 kts | 20° |
| 2026-05-06 16:18 | 44.81618 | 20.29105 | 304 ft | 9 kts | 31° |
| 2026-05-06 16:18 | 44.81650 | 20.29133 | 304 ft | 3 kts | 32° |
| 2026-05-06 16:19 | 44.81691 | 20.29169 | 304 ft | 11 kts | 32° |
| 2026-05-06 16:19 | 44.81769 | 20.29237 | 304 ft | 14 kts | 32° |
| 2026-05-06 16:19 | 44.81851 | 20.29309 | 305 ft | 14 kts | 32° |
| 2026-05-06 16:19 | 44.81930 | 20.29379 | 303 ft | 13 kts | 32° |
| 2026-05-06 16:20 | 44.82008 | 20.29446 | 304 ft | 13 kts | 32° |
| 2026-05-06 16:20 | 44.82084 | 20.29513 | 304 ft | 13 kts | 32° |
| 2026-05-06 16:20 | 44.82159 | 20.29580 | 306 ft | 12 kts | 32° |
| 2026-05-06 16:20 | 44.82232 | 20.29646 | 306 ft | 13 kts | 32° |
| 2026-05-06 16:21 | 44.82308 | 20.29712 | 306 ft | 13 kts | 32° |
| 2026-05-06 16:21 | 44.82352 | 20.29756 | 305 ft | 6 kts | 58° |
| 2026-05-06 16:21 | 44.82336 | 20.29807 | 305 ft | 7 kts | 122° |
| 2026-05-06 16:21 | 44.82225 | 20.30056 | 302 ft | 61 kts | 122° |
| 2026-05-06 16:22 | 44.81897 | 20.30793 | 304 ft | 114 kts | 122° |
| 2026-05-06 16:22 | 44.81444 | 20.31831 | 642 ft | 126 kts | 121° |
| 2026-05-06 16:22 | 44.81012 | 20.32879 | 1206 ft | 124 kts | 118° |
| 2026-05-06 16:22 | 44.80958 | 20.34098 | 1626 ft | 140 kts | 62° |
| 2026-05-06 16:23 | 44.81771 | 20.34799 | 2171 ft | 141 kts | 7° |
| 2026-05-06 16:23 | 44.82743 | 20.34409 | 2433 ft | 158 kts | 319° |
| 2026-05-06 16:23 | 44.83498 | 20.33173 | 2482 ft | 179 kts | 309° |
| 2026-05-06 16:23 | 44.84323 | 20.31791 | 2836 ft | 185 kts | 308° |
| 2026-05-06 16:24 | 44.85341 | 20.30696 | 3212 ft | 189 kts | 340° |
| 2026-05-06 16:24 | 44.86629 | 20.30352 | 3603 ft | 188 kts | 354° |
| 2026-05-06 16:24 | 44.87944 | 20.30228 | 4010 ft | 190 kts | 357° |
| 2026-05-06 16:24 | 44.89249 | 20.30146 | 4438 ft | 190 kts | 356° |
| 2026-05-06 16:25 | 44.90579 | 20.30027 | 4845 ft | 193 kts | 354° |
| 2026-05-06 16:25 | 44.91925 | 20.29857 | 5260 ft | 194 kts | 353° |
| 2026-05-06 16:25 | 44.93269 | 20.29654 | 5661 ft | 195 kts | 351° |
| 2026-05-06 16:25 | 44.94608 | 20.29431 | 6051 ft | 196 kts | 351° |
| 2026-05-06 16:26 | 44.95970 | 20.29206 | 6433 ft | 196 kts | 351° |
| 2026-05-06 16:26 | 44.97330 | 20.28983 | 6783 ft | 197 kts | 350° |
| 2026-05-06 16:26 | 44.98692 | 20.28761 | 7134 ft | 197 kts | 350° |
| 2026-05-06 16:26 | 45.00045 | 20.28543 | 7487 ft | 198 kts | 350° |
| 2026-05-06 16:27 | 45.01423 | 20.28319 | 7837 ft | 199 kts | 350° |
| 2026-05-06 16:27 | 45.02807 | 20.28094 | 8190 ft | 200 kts | 350° |
| 2026-05-06 16:27 | 45.04203 | 20.27870 | 8538 ft | 201 kts | 350° |
| 2026-05-06 16:27 | 45.05579 | 20.27648 | 8877 ft | 202 kts | 350° |
| 2026-05-06 16:28 | 45.06987 | 20.27422 | 9223 ft | 203 kts | 350° |
| 2026-05-06 16:28 | 45.08401 | 20.27195 | 9562 ft | 204 kts | 350° |
| 2026-05-06 16:28 | 45.09813 | 20.26966 | 9879 ft | 205 kts | 350° |
| 2026-05-06 16:28 | 45.11234 | 20.26734 | 10179 ft | 206 kts | 350° |
| 2026-05-06 16:29 | 45.12662 | 20.26502 | 10497 ft | 207 kts | 350° |
| 2026-05-06 16:29 | 45.14082 | 20.26275 | 10769 ft | 208 kts | 350° |
| 2026-05-06 16:29 | 45.15529 | 20.26042 | 11060 ft | 209 kts | 350° |
| 2026-05-06 16:29 | 45.16985 | 20.25807 | 11371 ft | 210 kts | 351° |
| 2026-05-06 16:30 | 45.18442 | 20.25569 | 11689 ft | 211 kts | 351° |
| 2026-05-06 16:30 | 45.19414 | 20.25413 | 11901 ft | 212 kts | 351° |
| 2026-05-06 16:30 | 45.21363 | 20.25101 | 12301 ft | 213 kts | 351° |
| 2026-05-06 16:30 | 45.22845 | 20.24860 | 12589 ft | 214 kts | 351° |
| 2026-05-06 16:31 | 45.24333 | 20.24618 | 12882 ft | 215 kts | 351° |
| 2026-05-06 16:31 | 45.25810 | 20.24379 | 13156 ft | 216 kts | 351° |
| 2026-05-06 16:31 | 45.27309 | 20.24136 | 13424 ft | 218 kts | 351° |
| 2026-05-06 16:31 | 45.28826 | 20.23890 | 13715 ft | 219 kts | 351° |
| 2026-05-06 16:32 | 45.30349 | 20.23644 | 13967 ft | 220 kts | 351° |
| 2026-05-06 16:32 | 45.31851 | 20.23401 | 14208 ft | 220 kts | 351° |
| 2026-05-06 16:32 | 45.33378 | 20.23152 | 14451 ft | 221 kts | 351° |
| 2026-05-06 16:32 | 45.34879 | 20.22756 | 14664 ft | 218 kts | 332° |
| 2026-05-06 16:33 | 45.36125 | 20.21572 | 14851 ft | 216 kts | 320° |
| 2026-05-06 16:33 | 45.37318 | 20.20261 | 15083 ft | 217 kts | 317° |
| 2026-05-06 16:33 | 45.38432 | 20.18856 | 15314 ft | 217 kts | 314° |
| 2026-05-06 16:34 | 45.40643 | 20.15916 | 15760 ft | 218 kts | 314° |
| 2026-05-06 16:34 | 45.41762 | 20.14447 | 15995 ft | 219 kts | 315° |
| 2026-05-06 16:34 | 45.42897 | 20.12990 | 16241 ft | 219 kts | 315° |
| 2026-05-06 16:34 | 45.44038 | 20.11536 | 16458 ft | 220 kts | 315° |
| 2026-05-06 16:35 | 45.45175 | 20.10093 | 16680 ft | 221 kts | 315° |
| 2026-05-06 16:35 | 45.46325 | 20.08631 | 16905 ft | 222 kts | 315° |
| 2026-05-06 16:35 | 45.47478 | 20.07162 | 17114 ft | 222 kts | 315° |
| 2026-05-06 16:35 | 45.48621 | 20.05712 | 17334 ft | 223 kts | 315° |
| 2026-05-06 16:36 | 45.49783 | 20.04235 | 17528 ft | 223 kts | 315° |
| 2026-05-06 16:36 | 45.50943 | 20.02753 | 17721 ft | 224 kts | 315° |
| 2026-05-06 16:36 | 45.52096 | 20.01288 | 17927 ft | 224 kts | 315° |
| 2026-05-06 16:36 | 45.53264 | 19.99799 | 18145 ft | 225 kts | 315° |
| 2026-05-06 16:37 | 45.54439 | 19.98301 | 18338 ft | 226 kts | 315° |
| 2026-05-06 16:37 | 45.55609 | 19.96806 | 18513 ft | 226 kts | 315° |
| 2026-05-06 16:37 | 45.56783 | 19.95310 | 18694 ft | 226 kts | 315° |
| 2026-05-06 16:37 | 45.57960 | 19.93809 | 18858 ft | 227 kts | 315° |
| 2026-05-06 16:38 | 45.59123 | 19.92322 | 19014 ft | 227 kts | 315° |
| 2026-05-06 16:38 | 45.60303 | 19.90811 | 19177 ft | 227 kts | 315° |
| 2026-05-06 16:38 | 45.61481 | 19.89300 | 19335 ft | 228 kts | 315° |
| 2026-05-06 16:38 | 45.62667 | 19.87782 | 19484 ft | 228 kts | 315° |
| 2026-05-06 16:39 | 45.63850 | 19.86267 | 19620 ft | 228 kts | 315° |
| 2026-05-06 16:39 | 45.65034 | 19.84750 | 19768 ft | 229 kts | 315° |
| 2026-05-06 16:39 | 45.66212 | 19.83237 | 19839 ft | 232 kts | 315° |
| 2026-05-06 16:39 | 45.67426 | 19.81681 | 19870 ft | 236 kts | 315° |
| 2026-05-06 16:40 | 45.68658 | 19.80098 | 19892 ft | 240 kts | 315° |
| 2026-05-06 16:40 | 45.69915 | 19.78480 | 19893 ft | 244 kts | 315° |
| 2026-05-06 16:40 | 45.71175 | 19.76862 | 19905 ft | 247 kts | 315° |
| 2026-05-06 16:40 | 45.72461 | 19.75207 | 19901 ft | 250 kts | 315° |
| 2026-05-06 16:41 | 45.73765 | 19.73528 | 19902 ft | 253 kts | 315° |
| 2026-05-06 16:41 | 45.75083 | 19.71828 | 19901 ft | 255 kts | 315° |
| 2026-05-06 16:41 | 45.76407 | 19.70124 | 19902 ft | 257 kts | 315° |
| 2026-05-06 16:41 | 45.77750 | 19.68392 | 19904 ft | 261 kts | 315° |
| 2026-05-06 16:42 | 45.79090 | 19.66661 | 19903 ft | 263 kts | 315° |
| 2026-05-06 16:42 | 45.80452 | 19.64902 | 19897 ft | 263 kts | 315° |
| 2026-05-06 16:42 | 45.81812 | 19.63147 | 19903 ft | 263 kts | 315° |
| 2026-05-06 16:42 | 45.83173 | 19.61385 | 19899 ft | 263 kts | 315° |
| 2026-05-06 16:43 | 45.84540 | 19.59615 | 19904 ft | 264 kts | 315° |
| 2026-05-06 16:43 | 45.85886 | 19.57871 | 19899 ft | 263 kts | 315° |
| 2026-05-06 16:43 | 45.87246 | 19.56109 | 19901 ft | 264 kts | 315° |
| 2026-05-06 16:43 | 45.88605 | 19.54343 | 19898 ft | 264 kts | 315° |
| 2026-05-06 16:44 | 45.89967 | 19.52574 | 19897 ft | 263 kts | 315° |
| 2026-05-06 16:44 | 45.91331 | 19.50802 | 19898 ft | 263 kts | 315° |
| 2026-05-06 16:44 | 45.92689 | 19.49040 | 19898 ft | 263 kts | 315° |
| 2026-05-06 16:44 | 45.94048 | 19.47274 | 19895 ft | 263 kts | 315° |
| 2026-05-06 16:45 | 45.95387 | 19.45528 | 19897 ft | 263 kts | 315° |
| 2026-05-06 16:45 | 45.96741 | 19.43763 | 19900 ft | 263 kts | 315° |
| 2026-05-06 16:45 | 45.98099 | 19.41995 | 19900 ft | 263 kts | 315° |
| 2026-05-06 16:45 | 45.99457 | 19.40222 | 19899 ft | 263 kts | 315° |
| 2026-05-06 16:46 | 46.00817 | 19.38445 | 19901 ft | 263 kts | 315° |
| 2026-05-06 16:46 | 46.02157 | 19.36697 | 19898 ft | 263 kts | 315° |
| 2026-05-06 16:46 | 46.03509 | 19.34930 | 19895 ft | 263 kts | 315° |
| 2026-05-06 16:46 | 46.04864 | 19.33157 | 19900 ft | 263 kts | 315° |
| 2026-05-06 16:47 | 46.06221 | 19.31378 | 19899 ft | 263 kts | 315° |
| 2026-05-06 16:47 | 46.07575 | 19.29608 | 19902 ft | 263 kts | 315° |
| 2026-05-06 16:47 | 46.08913 | 19.27854 | 19891 ft | 263 kts | 315° |
| 2026-05-06 16:47 | 46.10267 | 19.26076 | 19903 ft | 263 kts | 315° |
| 2026-05-06 16:48 | 46.11617 | 19.24301 | 19893 ft | 263 kts | 315° |
| 2026-05-06 16:48 | 46.12969 | 19.22525 | 19900 ft | 263 kts | 315° |
| 2026-05-06 16:48 | 46.14327 | 19.20745 | 19904 ft | 263 kts | 315° |
| 2026-05-06 16:48 | 46.15687 | 19.18959 | 19900 ft | 263 kts | 315° |
| 2026-05-06 16:49 | 46.17019 | 19.17203 | 19894 ft | 263 kts | 315° |
| 2026-05-06 16:49 | 46.18373 | 19.15415 | 19895 ft | 263 kts | 315° |
| 2026-05-06 16:49 | 46.19725 | 19.13638 | 19896 ft | 262 kts | 315° |
| 2026-05-06 16:49 | 46.21077 | 19.11855 | 19896 ft | 262 kts | 315° |
| 2026-05-06 16:50 | 46.22410 | 19.10093 | 19897 ft | 263 kts | 315° |
| 2026-05-06 16:50 | 46.23760 | 19.08308 | 19892 ft | 263 kts | 315° |
| 2026-05-06 16:50 | 46.25108 | 19.06529 | 19897 ft | 262 kts | 315° |
| 2026-05-06 16:50 | 46.26004 | 19.05346 | 19902 ft | 262 kts | 315° |
| 2026-05-06 16:51 | 46.27795 | 19.02975 | 19894 ft | 262 kts | 315° |
| 2026-05-06 16:51 | 46.29147 | 19.01183 | 19898 ft | 263 kts | 315° |
| 2026-05-06 16:51 | 46.30501 | 18.99387 | 19899 ft | 263 kts | 315° |
| 2026-05-06 16:51 | 46.31833 | 18.97622 | 19894 ft | 263 kts | 315° |
| 2026-05-06 16:52 | 46.33187 | 18.95827 | 19894 ft | 263 kts | 315° |
| 2026-05-06 16:52 | 46.34536 | 18.94033 | 19897 ft | 263 kts | 315° |
| 2026-05-06 16:52 | 46.35886 | 18.92236 | 19902 ft | 263 kts | 315° |
| 2026-05-06 16:52 | 46.37235 | 18.90445 | 19898 ft | 264 kts | 315° |
| 2026-05-06 16:53 | 46.38574 | 18.88663 | 19896 ft | 264 kts | 314° |
| 2026-05-06 16:53 | 46.39949 | 18.86830 | 19901 ft | 265 kts | 315° |
| 2026-05-06 16:53 | 46.41290 | 18.85043 | 19888 ft | 265 kts | 315° |
| 2026-05-06 16:53 | 46.42645 | 18.83240 | 19891 ft | 264 kts | 315° |
| 2026-05-06 16:54 | 46.43996 | 18.81435 | 19890 ft | 264 kts | 314° |
| 2026-05-06 16:54 | 46.44895 | 18.80231 | 19888 ft | 263 kts | 314° |
| 2026-05-06 16:54 | 46.46684 | 18.77844 | 19890 ft | 263 kts | 314° |
| 2026-05-06 16:54 | 46.48032 | 18.76043 | 19895 ft | 263 kts | 314° |
| 2026-05-06 16:55 | 46.48925 | 18.74845 | 19893 ft | 263 kts | 314° |
| 2026-05-06 16:55 | 46.50268 | 18.73046 | 19891 ft | 262 kts | 314° |
| 2026-05-06 16:55 | 46.52048 | 18.70661 | 19898 ft | 262 kts | 314° |
| 2026-05-06 16:55 | 46.52954 | 18.69444 | 19896 ft | 262 kts | 314° |
| 2026-05-06 16:56 | 46.54298 | 18.67637 | 19901 ft | 263 kts | 314° |
| 2026-05-06 16:56 | 46.55631 | 18.65851 | 19891 ft | 263 kts | 314° |
| 2026-05-06 16:56 | 46.56976 | 18.64045 | 19891 ft | 263 kts | 314° |
| 2026-05-06 16:56 | 46.58320 | 18.62237 | 19894 ft | 263 kts | 314° |
| 2026-05-06 16:57 | 46.59663 | 18.60428 | 19893 ft | 262 kts | 314° |
| 2026-05-06 16:57 | 46.60993 | 18.58639 | 19892 ft | 262 kts | 314° |
| 2026-05-06 16:57 | 46.62329 | 18.56837 | 19896 ft | 262 kts | 314° |
| 2026-05-06 16:57 | 46.63676 | 18.55020 | 19896 ft | 263 kts | 314° |
| 2026-05-06 16:58 | 46.65019 | 18.53208 | 19888 ft | 262 kts | 314° |
| 2026-05-06 16:58 | 46.66342 | 18.51422 | 19889 ft | 263 kts | 314° |
| 2026-05-06 16:58 | 46.67683 | 18.49607 | 19889 ft | 263 kts | 314° |
| 2026-05-06 16:58 | 46.69025 | 18.47791 | 19888 ft | 263 kts | 314° |
| 2026-05-06 16:59 | 46.70363 | 18.45978 | 19890 ft | 263 kts | 314° |
| 2026-05-06 16:59 | 46.71710 | 18.44158 | 19889 ft | 263 kts | 314° |
| 2026-05-06 16:59 | 46.73032 | 18.42366 | 19886 ft | 263 kts | 314° |
| 2026-05-06 16:59 | 46.74372 | 18.40549 | 19887 ft | 263 kts | 314° |
| 2026-05-06 17:00 | 46.75713 | 18.38730 | 19891 ft | 263 kts | 314° |
| 2026-05-06 17:00 | 46.77053 | 18.36912 | 19890 ft | 263 kts | 313° |
| 2026-05-06 17:00 | 46.78390 | 18.35090 | 19886 ft | 263 kts | 314° |
| 2026-05-06 17:00 | 46.79712 | 18.33291 | 19887 ft | 263 kts | 314° |
| 2026-05-06 17:01 | 46.81050 | 18.31471 | 19884 ft | 263 kts | 314° |
| 2026-05-06 17:01 | 46.82388 | 18.29647 | 19878 ft | 263 kts | 313° |
| 2026-05-06 17:01 | 46.83730 | 18.27819 | 19881 ft | 262 kts | 313° |
| 2026-05-06 17:01 | 46.85069 | 18.25992 | 19883 ft | 262 kts | 313° |
| 2026-05-06 17:02 | 46.86390 | 18.24193 | 19884 ft | 262 kts | 313° |
| 2026-05-06 17:02 | 46.87721 | 18.22376 | 19891 ft | 262 kts | 313° |
| 2026-05-06 17:02 | 46.89055 | 18.20550 | 19883 ft | 262 kts | 313° |
| 2026-05-06 17:02 | 46.90388 | 18.18727 | 19880 ft | 262 kts | 313° |
| 2026-05-06 17:03 | 46.91722 | 18.16903 | 19883 ft | 262 kts | 313° |
| 2026-05-06 17:03 | 46.93056 | 18.15071 | 19882 ft | 262 kts | 313° |
| 2026-05-06 17:03 | 46.94372 | 18.13267 | 19884 ft | 262 kts | 313° |
| 2026-05-06 17:03 | 46.95707 | 18.11435 | 19881 ft | 263 kts | 313° |
| 2026-05-06 17:04 | 46.97045 | 18.09597 | 19882 ft | 263 kts | 313° |
| 2026-05-06 17:04 | 46.98381 | 18.07764 | 19879 ft | 262 kts | 313° |
| 2026-05-06 17:04 | 46.99711 | 18.05934 | 19879 ft | 262 kts | 313° |
| 2026-05-06 17:04 | 47.01023 | 18.04129 | 19879 ft | 262 kts | 313° |
| 2026-05-06 17:05 | 47.02359 | 18.02296 | 19880 ft | 262 kts | 313° |
| 2026-05-06 17:05 | 47.03690 | 18.00461 | 19884 ft | 262 kts | 312° |
| 2026-05-06 17:05 | 47.05019 | 17.98621 | 19881 ft | 263 kts | 312° |
| 2026-05-06 17:05 | 47.06353 | 17.96785 | 19882 ft | 263 kts | 313° |
| 2026-05-06 17:06 | 47.07691 | 17.94936 | 19876 ft | 263 kts | 313° |
| 2026-05-06 17:06 | 47.09008 | 17.93115 | 19880 ft | 264 kts | 312° |
| 2026-05-06 17:06 | 47.10349 | 17.91260 | 19879 ft | 264 kts | 312° |
| 2026-05-06 17:06 | 47.11689 | 17.89407 | 19870 ft | 264 kts | 312° |
| 2026-05-06 17:07 | 47.13023 | 17.87559 | 19871 ft | 264 kts | 312° |
| 2026-05-06 17:07 | 47.14348 | 17.85723 | 19871 ft | 264 kts | 312° |
| 2026-05-06 17:07 | 47.15683 | 17.83872 | 19876 ft | 265 kts | 312° |
| 2026-05-06 17:07 | 47.17028 | 17.82002 | 19857 ft | 265 kts | 312° |
| 2026-05-06 17:08 | 47.18367 | 17.80144 | 19866 ft | 265 kts | 312° |
| 2026-05-06 17:08 | 47.19711 | 17.78284 | 19866 ft | 265 kts | 312° |
| 2026-05-06 17:08 | 47.21035 | 17.76438 | 19862 ft | 265 kts | 312° |
| 2026-05-06 17:08 | 47.22378 | 17.74573 | 19851 ft | 265 kts | 312° |
| 2026-05-06 17:09 | 47.23717 | 17.72704 | 19863 ft | 264 kts | 312° |
| 2026-05-06 17:09 | 47.25054 | 17.70840 | 19872 ft | 264 kts | 312° |
| 2026-05-06 17:09 | 47.26378 | 17.69003 | 19859 ft | 265 kts | 312° |
| 2026-05-06 17:09 | 47.27713 | 17.67134 | 19854 ft | 265 kts | 312° |
| 2026-05-06 17:10 | 47.29049 | 17.65264 | 19855 ft | 264 kts | 312° |
| 2026-05-06 17:10 | 47.30386 | 17.63392 | 19855 ft | 264 kts | 312° |
| 2026-05-06 17:10 | 47.31721 | 17.61526 | 19858 ft | 264 kts | 312° |
| 2026-05-06 17:10 | 47.33053 | 17.59661 | 19854 ft | 264 kts | 312° |
| 2026-05-06 17:11 | 47.34385 | 17.57797 | 19859 ft | 264 kts | 311° |
| 2026-05-06 17:11 | 47.35698 | 17.55952 | 19858 ft | 264 kts | 312° |
| 2026-05-06 17:11 | 47.37035 | 17.54076 | 19859 ft | 264 kts | 312° |
| 2026-05-06 17:11 | 47.38369 | 17.52200 | 19857 ft | 265 kts | 312° |
| 2026-05-06 17:12 | 47.39705 | 17.50326 | 19856 ft | 265 kts | 312° |
| 2026-05-06 17:12 | 47.41042 | 17.48450 | 19862 ft | 265 kts | 311° |
| 2026-05-06 17:12 | 47.42364 | 17.46587 | 19861 ft | 266 kts | 311° |
| 2026-05-06 17:12 | 47.43704 | 17.44698 | 19859 ft | 266 kts | 312° |
| 2026-05-06 17:13 | 47.45047 | 17.42809 | 19854 ft | 266 kts | 311° |
| 2026-05-06 17:13 | 47.46393 | 17.40911 | 19853 ft | 266 kts | 311° |
| 2026-05-06 17:13 | 47.47719 | 17.39034 | 19854 ft | 266 kts | 311° |
| 2026-05-06 17:13 | 47.49063 | 17.37136 | 19852 ft | 266 kts | 311° |
| 2026-05-06 17:14 | 47.50408 | 17.35238 | 19848 ft | 267 kts | 311° |
| 2026-05-06 17:14 | 47.51735 | 17.33361 | 19848 ft | 266 kts | 311° |
| 2026-05-06 17:14 | 47.53077 | 17.31458 | 19848 ft | 266 kts | 311° |
| 2026-05-06 17:14 | 47.54422 | 17.29551 | 19843 ft | 267 kts | 311° |
| 2026-05-06 17:15 | 47.55765 | 17.27647 | 19836 ft | 267 kts | 311° |
| 2026-05-06 17:15 | 47.57107 | 17.25747 | 19833 ft | 267 kts | 311° |
| 2026-05-06 17:15 | 47.58448 | 17.23844 | 19832 ft | 267 kts | 311° |
| 2026-05-06 17:15 | 47.59780 | 17.21947 | 19760 ft | 270 kts | 311° |
| 2026-05-06 17:16 | 47.61153 | 17.19999 | 19626 ft | 274 kts | 311° |
| 2026-05-06 17:16 | 47.62537 | 17.18027 | 19505 ft | 278 kts | 311° |
| 2026-05-06 17:16 | 47.63942 | 17.16028 | 19383 ft | 280 kts | 311° |
| 2026-05-06 17:16 | 47.65336 | 17.14038 | 19267 ft | 283 kts | 311° |
| 2026-05-06 17:17 | 47.66764 | 17.12004 | 19153 ft | 284 kts | 311° |
| 2026-05-06 17:17 | 47.68204 | 17.09947 | 18869 ft | 290 kts | 311° |
| 2026-05-06 17:17 | 47.69664 | 17.07859 | 18519 ft | 292 kts | 311° |
| 2026-05-06 17:17 | 47.71118 | 17.05776 | 18177 ft | 294 kts | 311° |
| 2026-05-06 17:18 | 47.72490 | 17.03543 | 17784 ft | 292 kts | 304° |
| 2026-05-06 17:18 | 47.73711 | 17.01117 | 17392 ft | 291 kts | 301° |
| 2026-05-06 17:18 | 47.74876 | 16.98654 | 17028 ft | 291 kts | 300° |
| 2026-05-06 17:18 | 47.76055 | 16.96183 | 16659 ft | 292 kts | 301° |
| 2026-05-06 17:19 | 47.77262 | 16.93752 | 16302 ft | 292 kts | 302° |
| 2026-05-06 17:19 | 47.78483 | 16.91325 | 15944 ft | 292 kts | 302° |
| 2026-05-06 17:19 | 47.79682 | 16.88933 | 15590 ft | 292 kts | 302° |
| 2026-05-06 17:19 | 47.80896 | 16.86505 | 15239 ft | 292 kts | 302° |
| 2026-05-06 17:20 | 47.82111 | 16.84069 | 14895 ft | 292 kts | 302° |
| 2026-05-06 17:20 | 47.83325 | 16.81636 | 14555 ft | 292 kts | 302° |
| 2026-05-06 17:20 | 47.84538 | 16.79209 | 14216 ft | 292 kts | 302° |
| 2026-05-06 17:20 | 47.85745 | 16.76785 | 13887 ft | 290 kts | 302° |
| 2026-05-06 17:21 | 47.86950 | 16.74378 | 13559 ft | 288 kts | 302° |
| 2026-05-06 17:21 | 47.88154 | 16.71997 | 13197 ft | 287 kts | 302° |
| 2026-05-06 17:21 | 47.89338 | 16.69653 | 12835 ft | 286 kts | 302° |
| 2026-05-06 17:21 | 47.90530 | 16.67295 | 12493 ft | 284 kts | 301° |
| 2026-05-06 17:22 | 47.91791 | 16.65026 | 12157 ft | 285 kts | 309° |
| 2026-05-06 17:22 | 47.93251 | 16.63012 | 11807 ft | 285 kts | 314° |
| 2026-05-06 17:22 | 47.94746 | 16.61064 | 11469 ft | 285 kts | 314° |
| 2026-05-06 17:22 | 47.96218 | 16.59093 | 11134 ft | 284 kts | 312° |
| 2026-05-06 17:23 | 47.97653 | 16.57079 | 10803 ft | 283 kts | 311° |
| 2026-05-06 17:23 | 47.99084 | 16.55059 | 10483 ft | 282 kts | 311° |
| 2026-05-06 17:23 | 48.00490 | 16.53071 | 10162 ft | 281 kts | 311° |
| 2026-05-06 17:23 | 48.01893 | 16.51058 | 9846 ft | 275 kts | 308° |
| 2026-05-06 17:24 | 48.02980 | 16.48765 | 9534 ft | 267 kts | 295° |
| 2026-05-06 17:24 | 48.03876 | 16.46349 | 9205 ft | 265 kts | 294° |
| 2026-05-06 17:24 | 48.04763 | 16.43935 | 8887 ft | 264 kts | 294° |
| 2026-05-06 17:24 | 48.05675 | 16.41537 | 8570 ft | 265 kts | 295° |
| 2026-05-06 17:25 | 48.06609 | 16.39170 | 8250 ft | 264 kts | 296° |
| 2026-05-06 17:25 | 48.07555 | 16.36816 | 7942 ft | 264 kts | 296° |
| 2026-05-06 17:25 | 48.08483 | 16.34485 | 7633 ft | 263 kts | 296° |
| 2026-05-06 17:25 | 48.09413 | 16.32149 | 7316 ft | 260 kts | 296° |
| 2026-05-06 17:26 | 48.10335 | 16.29831 | 7008 ft | 258 kts | 296° |
| 2026-05-06 17:26 | 48.11250 | 16.27530 | 6707 ft | 256 kts | 296° |
| 2026-05-06 17:26 | 48.12154 | 16.25239 | 6389 ft | 254 kts | 296° |
| 2026-05-06 17:26 | 48.12981 | 16.22933 | 6084 ft | 250 kts | 292° |
| 2026-05-06 17:27 | 48.13732 | 16.20598 | 5803 ft | 246 kts | 290° |
| 2026-05-06 17:27 | 48.14442 | 16.18300 | 5621 ft | 246 kts | 290° |
| 2026-05-06 17:27 | 48.15175 | 16.15991 | 5329 ft | 245 kts | 290° |
| 2026-05-06 17:27 | 48.15908 | 16.13697 | 5232 ft | 241 kts | 291° |
| 2026-05-06 17:28 | 48.16814 | 16.11615 | 5121 ft | 241 kts | 313° |
| 2026-05-06 17:28 | 48.18339 | 16.10568 | 5084 ft | 248 kts | 349° |
| 2026-05-06 17:28 | 48.20022 | 16.10955 | 5063 ft | 247 kts | 24° |
| 2026-05-06 17:28 | 48.21476 | 16.12266 | 5032 ft | 243 kts | 33° |
| 2026-05-06 17:29 | 48.22890 | 16.13656 | 5007 ft | 243 kts | 33° |
| 2026-05-06 17:29 | 48.24171 | 16.15226 | 4998 ft | 240 kts | 56° |
| 2026-05-06 17:29 | 48.24705 | 16.17530 | 5063 ft | 233 kts | 93° |
| 2026-05-06 17:29 | 48.24298 | 16.19803 | 5031 ft | 222 kts | 123° |
| 2026-05-06 17:30 | 48.23600 | 16.21631 | 5015 ft | 226 kts | 126° |
| 2026-05-06 17:30 | 48.22798 | 16.23612 | 4965 ft | 231 kts | 127° |
| 2026-05-06 17:30 | 48.21962 | 16.25624 | 4746 ft | 232 kts | 127° |
| 2026-05-06 17:30 | 48.21106 | 16.27667 | 4435 ft | 230 kts | 128° |
| 2026-05-06 17:31 | 48.20265 | 16.29686 | 4126 ft | 227 kts | 128° |
| 2026-05-06 17:31 | 48.19440 | 16.31668 | 3799 ft | 225 kts | 128° |
| 2026-05-06 17:31 | 48.18642 | 16.33639 | 3501 ft | 217 kts | 125° |
| 2026-05-06 17:31 | 48.17997 | 16.35698 | 3190 ft | 218 kts | 120° |
| 2026-05-06 17:32 | 48.17364 | 16.37743 | 2901 ft | 215 kts | 123° |
| 2026-05-06 17:32 | 48.16691 | 16.39736 | 2611 ft | 213 kts | 123° |
| 2026-05-06 17:32 | 48.16084 | 16.41617 | 2325 ft | 192 kts | 122° |
| 2026-05-06 17:32 | 48.15542 | 16.43337 | 2082 ft | 173 kts | 122° |
| 2026-05-06 17:33 | 48.15044 | 16.44842 | 1863 ft | 147 kts | 123° |
| 2026-05-06 17:33 | 48.14621 | 16.46144 | 1680 ft | 132 kts | 124° |
| 2026-05-06 17:33 | 48.14254 | 16.47294 | 1511 ft | 113 kts | 124° |
| 2026-05-06 17:33 | 48.13924 | 16.48323 | 1358 ft | 110 kts | 127° |
| 2026-05-06 17:34 | 48.13581 | 16.49348 | 1205 ft | 109 kts | 128° |
| 2026-05-06 17:34 | 48.13242 | 16.50341 | 1063 ft | 106 kts | 128° |
| 2026-05-06 17:34 | 48.12914 | 16.51312 | 922 ft | 103 kts | 125° |
| 2026-05-06 17:34 | 48.12606 | 16.52294 | 777 ft | 105 kts | 118° |
| 2026-05-06 17:35 | 48.12308 | 16.53258 | 647 ft | 102 kts | 116° |
| 2026-05-06 17:35 | 48.12005 | 16.54182 | 607 ft | 81 kts | 116° |
| 2026-05-06 17:35 | 48.11841 | 16.54690 | 610 ft | 43 kts | 116° |
| 2026-05-06 17:36 | 48.11856 | 16.55136 | 605 ft | 10 kts | 29° |
| 2026-05-06 17:36 | 48.11858 | 16.55138 | 605 ft | 0 kts | 25° |
| 2026-05-06 17:36 | 48.11866 | 16.55143 | 610 ft | 7 kts | 25° |
| 2026-05-06 17:37 | 48.11939 | 16.55205 | 615 ft | 13 kts | 51° |
| 2026-05-06 17:37 | 48.11935 | 16.55291 | 613 ft | 6 kts | 115° |
| 2026-05-06 17:37 | 48.11923 | 16.55327 | 609 ft | 0 kts | 116° |
| 2026-05-06 17:38 | 48.11919 | 16.55339 | 605 ft | 6 kts | 116° |
| 2026-05-06 17:39 | 48.11894 | 16.55422 | 610 ft | 12 kts | 110° |
| 2026-05-06 17:39 | 48.11861 | 16.55556 | 612 ft | 11 kts | 116° |
| 2026-05-06 17:39 | 48.11831 | 16.55648 | 616 ft | 10 kts | 116° |
| 2026-05-06 17:39 | 48.11795 | 16.55758 | 610 ft | 13 kts | 116° |
| 2026-05-06 17:40 | 48.11754 | 16.55885 | 608 ft | 15 kts | 116° |
| 2026-05-06 17:40 | 48.11709 | 16.56022 | 612 ft | 15 kts | 116° |
| 2026-05-06 17:40 | 48.11664 | 16.56162 | 610 ft | 10 kts | 116° |
| 2026-05-06 17:40 | 48.11678 | 16.56258 | 609 ft | 13 kts | 30° |
| 2026-05-06 17:41 | 48.11755 | 16.56325 | 611 ft | 9 kts | 53° |
| 2026-05-06 17:41 | 48.11746 | 16.56391 | 605 ft | 2 kts | 148° |
| 2026-05-06 17:41 | 48.11723 | 16.56386 | 605 ft | 7 kts | 199° |
| 2026-05-06 17:41 | 48.11697 | 16.56368 | 614 ft | 2 kts | 205° |
| 2026-05-06 17:42 | 48.11674 | 16.56352 | 605 ft | 3 kts | 206° |
| 2026-05-06 17:42 | 48.11670 | 16.56349 | 605 ft | 0 kts | 206° |